ADDS METAR Data INFO
IDs: Format: Raw Decoded Include TAF

Data at: 0600 UTC 25 Jun 2018

KLZZ 250555Z AUTO 17010KT 10SM CLR 26/21 A2989 RMK AO2 T02590210 10339 20259 403640243
KLZZ 250535Z AUTO 17011G16KT 10SM CLR 26/21 A2990 RMK AO2 T02620210
KLZZ 250515Z AUTO 17010G15KT 10SM CLR 27/21 A2990 RMK AO2 T02660211
KLZZ 250455Z AUTO 16008KT 10SM CLR 27/22 A2991 RMK AO2 T02700215
KLZZ 250435Z AUTO 15012G17KT 10SM CLR 28/22 A2991 RMK AO2 T02750215
KLZZ 250415Z AUTO 15008KT 10SM CLR 28/21 A2991 RMK AO2 T02780212
KLZZ 250355Z AUTO 16008G16KT 10SM SCT042 28/21 A2990 RMK AO2 T02820206
KLZZ 250335Z AUTO 16009G15KT 10SM SCT042 29/20 A2990 RMK AO2 T02860201
KLZZ 250315Z AUTO 16007KT 10SM CLR 29/21 A2989 RMK AO2 T02900205
KLZZ 250255Z AUTO 15008KT 10SM CLR 29/20 A2988 RMK AO2 T02910203
KLZZ 250235Z AUTO 16008G14KT 10SM CLR 30/20 A2987 RMK AO2 T02970202
KLZZ 250215Z AUTO 16009KT 10SM CLR 30/20 A2985 RMK AO2 T03000200
KLZZ 250155Z AUTO 17009G14KT 10SM CLR 31/20 A2984 RMK AO2 T03050199
KLZZ 250135Z AUTO 17011G18KT 10SM CLR 31/20 A2983 RMK AO2 T03100199
KLZZ 250115Z AUTO 16011G17KT 10SM CLR 32/20 A2983 RMK AO2 T03170198
KLZZ 250055Z AUTO 16012G19KT 10SM CLR 33/20 A2982 RMK AO2 T03250199
KLZZ 250035Z AUTO 17015G21KT 10SM CLR 33/20 A2982 RMK AO2 T03320197
KLZZ 250015Z AUTO 17015G22KT 10SM CLR 34/20 A2981 RMK AO2 T03380195
KLZZ 242355Z AUTO 17015G23KT 10SM CLR 34/19 A2980 RMK AO2 T03400194 10364 20334
KLZZ 242335Z AUTO 18013G19KT 10SM CLR 35/19 A2980 RMK AO2 T03450192
KLZZ 242315Z AUTO 16016G24KT 10SM CLR 35/19 A2979 RMK AO2 T03470189
KLZZ 242255Z AUTO 15015G23KT 10SM CLR 35/19 A2980 RMK AO2 T03540188
KLZZ 242235Z AUTO 16015G21KT 10SM CLR 35/18 A2981 RMK AO2 T03530183
KLZZ 242215Z AUTO 19014G24KT 10SM CLR 35/19 A2981 RMK AO2 T03520187
KLZZ 242155Z AUTO 17013G23KT 10SM CLR 36/19 A2981 RMK AO2 T03550192
KLZZ 242135Z AUTO 15018G25KT 140V210 10SM CLR 35/19 A2982 RMK AO2 T03540191
KLZZ 242115Z AUTO 17014G23KT 10SM CLR 36/19 A2982 RMK AO2 T03570194
KLZZ 242055Z AUTO 15016G22KT 130V200 10SM CLR 36/19 A2982 RMK AO2 T03550191
KLZZ 242035Z AUTO 16013G23KT 10SM CLR 36/19 A2983 RMK AO2 T03570186
KLZZ 242015Z AUTO 18013G22KT 10SM CLR 36/18 A2983 RMK AO2 T03570183
KLZZ 241955Z AUTO 17009G17KT 130V200 10SM CLR 36/18 A2984 RMK AO2 T03580184
KLZZ 241935Z AUTO 16011G19KT 10SM CLR 35/19 A2984 RMK AO2 T03520186
KLZZ 241915Z AUTO 15015G19KT 10SM CLR 35/19 A2985 RMK AO2 T03520191
KLZZ 241855Z AUTO 19007KT 10SM CLR 34/19 A2986 RMK AO2 T03400185
KLZZ 241835Z AUTO 16009G19KT 10SM CLR 34/19 A2987 RMK AO2 T03430192
KLZZ 241815Z AUTO 17010G21KT 150V220 10SM CLR 34/20 A2987 RMK AO2 T03360197
KLZZ 241755Z AUTO 20008G14KT 10SM CLR 33/20 A2987 RMK AO2 T03340200 10336 20245
KLZZ 241735Z AUTO 20010G16KT 180V240 10SM CLR 33/20 A2986 RMK AO2 T03310201
KLZZ 241715Z AUTO 19011KT 10SM CLR 33/20 A2987 RMK AO2 T03280203
KLZZ 241655Z AUTO 21011G17KT 10SM CLR 32/20 A2987 RMK AO2 T03200201
KLZZ 241635Z AUTO 21011G16KT 180V240 10SM SCT042 SCT055 32/20 A2987 RMK AO2 T03150203
KLZZ 241615Z AUTO 22010G17KT 180V240 10SM CLR 31/20 A2987 RMK AO2 T03100203
KLZZ 241555Z AUTO 21012G19KT 10SM SCT039 30/20 A2987 RMK AO2 T03040204
KLZZ 241535Z AUTO 22012G20KT 10SM SCT033 30/20 A2986 RMK AO2 T02970202
KLZZ 241515Z AUTO 20011G17KT 160V220 10SM SCT033 29/21 A2986 RMK AO2 T02930207
KLZZ 241455Z AUTO 19013G21KT 10SM CLR 29/21 A2986 RMK AO2 T02860205
KLZZ 241435Z AUTO 21013G21KT 10SM CLR 28/21 A2986 RMK AO2 T02770205
KLZZ 241415Z AUTO 19013G20KT 170V230 10SM CLR 28/21 A2986 RMK AO2 T02760207
KLZZ 241355Z AUTO 21011G15KT 10SM SCT023 27/21 A2985 RMK AO2 T02710211
KLZZ 241335Z AUTO 20010G15KT 10SM SCT023 26/21 A2985 RMK AO2 T02640212
KLZZ 241315Z AUTO 20010G15KT 10SM CLR 26/21 A2984 RMK AO2 T02590211
KLZZ 241255Z AUTO 20010G14KT 10SM SCT021 25/21 A2984 RMK AO2 T02520212
KLZZ 241235Z AUTO 20009G16KT 10SM SCT021 25/21 A2983 RMK AO2 T02480211
KLZZ 241215Z AUTO 20009G16KT 10SM SCT021 25/21 A2982 RMK AO2 T02460211
KLZZ 241155Z AUTO 19009KT 10SM SCT023 25/21 A2981 RMK AO2 60006 70006 T02450211 10275 20243
KLZZ 241135Z AUTO 19009G18KT 10SM CLR 24/21 A2980 RMK AO2 T02430211
KLZZ 241115Z AUTO 20013G19KT 10SM CLR 24/21 A2979 RMK AO2 T02440211
KLZZ 241055Z AUTO 20012G18KT 10SM CLR 25/21 A2978 RMK AO2 T02450211
KLZZ 241035Z AUTO 19012G18KT 10SM CLR 25/21 A2979 RMK AO2 T02470210
KLZZ 241015Z AUTO 20009G16KT 160V230 10SM CLR 25/21 A2980 RMK AO2 T02500209
KLZZ 240955Z AUTO 18014G23KT 10SM CLR 25/21 A2977 RMK AO2 T02500207
KLZZ 240935Z AUTO 18013G21KT 10SM CLR 25/21 A2978 RMK AO2 T02500212
KLZZ 240915Z AUTO 18009G17KT 10SM CLR 25/22 A2980 RMK AO2 T02510216
KLZZ 240855Z AUTO 17011G19KT 10SM SCT017 25/22 A2980 RMK AO2 60006 T02520221
KLZZ 240835Z AUTO 16008KT 10SM BKN017 26/23 A2982 RMK AO2 T02550225
KLZZ 240815Z AUTO 17008G17KT 10SM CLR 26/23 A2981 RMK AO2 T02570226
KLZZ 240755Z AUTO 17006KT 10SM CLR 26/23 A2983 RMK AO2 T02620227
KLZZ 240735Z AUTO 17014G21KT 10SM CLR 26/23 A2981 RMK AO2 T02630228
KLZZ 240715Z AUTO 17010G22KT 10SM CLR 26/23 A2982 RMK AO2 T02630230
KLZZ 240655Z AUTO 16011KT 10SM SCT100 SCT120 26/23 A2984 RMK AO2 P0006 T02600232
KLZZ 240635Z AUTO 19008KT 4SM -RA SCT025 BKN049 BKN100 26/23 A2989 RMK AO2 LTG DSNT N AND W P0005 T02610234
KLZZ 240615Z AUTO 21004KT 10SM TS SCT034 BKN048 OVC065 28/23 A2991 RMK AO2 LTG DSNT W AND NW T02750227
KLZZ 240555Z AUTO 20004KT 10SM BKN032 OVC065 28/23 A2991 RMK AO2 LTG DSNT W AND NW T02750226 10347 20275 403650252
KLZZ 240535Z AUTO 19005KT 10SM VCTS SCT030 SCT065 28/23 A2989 RMK AO2 LTG DSNT W AND NW T02750226
KLZZ 240515Z AUTO 17009KT 10SM CLR 28/23 A2987 RMK AO2 LTG DSNT W AND NW T02750225
KLZZ 240455Z AUTO 18006KT 10SM CLR 28/22 A2987 RMK AO2 LTG DSNT W AND NW T02770224
KLZZ 240435Z AUTO 18007G17KT 150V210 10SM CLR 28/22 A2984 RMK AO2 LTG DSNT W T02800222
KLZZ 240415Z AUTO 17007KT 10SM CLR 28/22 A2982 RMK AO2 T02830218
KLZZ 240355Z AUTO 17008KT 10SM CLR 29/22 A2982 RMK AO2 T02870215
KLZZ 240335Z AUTO 16013G17KT 10SM CLR 29/21 A2981 RMK AO2 T02910213
KLZZ 240315Z AUTO 16009G17KT 10SM CLR 30/21 A2979 RMK AO2 T02960211
KLZZ 240255Z AUTO 16012G18KT 10SM CLR 30/21 A2977 RMK AO2 T02990210
KLZZ 240235Z AUTO 16011KT 10SM CLR 30/21 A2977 RMK AO2 T03030210
KLZZ 240215Z AUTO 16013G18KT 10SM CLR 31/21 A2975 RMK AO2 T03070209
KLZZ 240155Z AUTO 16014G18KT 10SM CLR 31/21 A2974 RMK AO2 T03100210
KLZZ 240135Z AUTO 16010G17KT 10SM CLR 32/21 A2974 RMK AO2 T03150210
KLZZ 240115Z AUTO 16011G19KT 10SM CLR 32/21 A2973 RMK AO2 T03220210
KLZZ 240055Z AUTO 16014G20KT 10SM CLR 33/21 A2973 RMK AO2 T03300208
KLZZ 240035Z AUTO 17011G22KT 10SM CLR 34/21 A2973 RMK AO2 T03350206
KLZZ 240015Z AUTO 15014G21KT 10SM CLR 34/21 A2973 RMK AO2 T03420205
KLZZ 232355Z AUTO 16012G19KT 10SM CLR 35/21 A2973 RMK AO2 T03470205 10365 20331
KLZZ 232335Z AUTO 16012G22KT 10SM CLR 35/20 A2973 RMK AO2 T03490204
KLZZ 232315Z AUTO 17015G21KT 10SM CLR 35/20 A2973 RMK AO2 T03540204
KLZZ 232255Z AUTO 17012G22KT 10SM CLR 35/20 A2973 RMK AO2 T03540203
KLZZ 232235Z AUTO 16011G19KT 10SM CLR 36/20 A2974 RMK AO2 T03570202
KLZZ 232215Z AUTO 16011G20KT 10SM CLR 36/20 A2974 RMK AO2 T03610201
KLZZ 232155Z AUTO 16015G20KT 10SM CLR 36/20 A2975 RMK AO2 T03640200
KLZZ 232135Z AUTO 17012G23KT 10SM CLR 36/20 A2976 RMK AO2 T03580198
KLZZ 232115Z AUTO 17011G22KT 10SM CLR 36/20 A2976 RMK AO2 T03610198
KLZZ 232055Z AUTO 17014G19KT 10SM CLR 36/20 A2977 RMK AO2 T03580196
KLZZ 232035Z AUTO 16010G16KT 10SM CLR 36/20 A2977 RMK AO2 T03630196
KLZZ 232015Z AUTO 16014G19KT 10SM CLR 35/19 A2978 RMK AO2 T03530192
KLZZ 231955Z AUTO 16010G16KT 10SM CLR 35/19 A2979 RMK AO2 T03540192
KLZZ 231935Z AUTO 16008G22KT 10SM CLR 35/19 A2979 RMK AO2 T03520192
KLZZ 231915Z AUTO 18012G22KT 10SM CLR 35/19 A2980 RMK AO2 T03530193
KLZZ 231855Z AUTO 16013G19KT 10SM CLR 34/19 A2981 RMK AO2 T03430192
KLZZ 231835Z AUTO 18010G19KT 10SM CLR 34/19 A2982 RMK AO2 T03390192
KLZZ 231815Z AUTO 14014G18KT 10SM CLR 33/19 A2982 RMK AO2 T03340192